createdAt,value
2023-05-05T00:02:23.239Z,17.56
2023-05-05T00:04:51.045Z,17.61
2023-05-05T00:07:18.775Z,17.65
2023-05-05T00:09:46.492Z,17.64
2023-05-05T00:12:14.227Z,17.63
2023-05-05T00:14:43.700Z,17.63
2023-05-05T00:17:11.632Z,17.56
2023-05-05T00:19:39.528Z,17.51
2023-05-05T00:22:07.359Z,17.43
2023-05-05T00:24:35.080Z,17.42
2023-05-05T00:27:03.470Z,17.41
2023-05-05T00:29:31.568Z,17.21
2023-05-05T00:32:00.819Z,17.39
2023-05-05T00:34:28.625Z,17.38
2023-05-05T00:36:56.333Z,17.35
2023-05-05T00:39:24.296Z,17.31
2023-05-05T00:41:51.984Z,17.28
2023-05-05T00:44:35.747Z,17.18
2023-05-05T00:47:05.327Z,17.16
2023-05-05T00:49:34.099Z,17.08
2023-05-05T00:52:02.104Z,17.11
2023-05-05T00:54:30.049Z,17.13
2023-05-05T00:56:57.999Z,17.10
2023-05-05T00:59:26.114Z,17.07
2023-05-05T01:01:53.866Z,17.00
2023-05-05T01:04:22.969Z,17.01
2023-05-05T01:07:02.033Z,16.93
2023-05-05T01:09:44.255Z,16.88
2023-05-05T01:12:25.685Z,16.80
2023-05-05T01:15:02.356Z,16.77
2023-05-05T01:17:37.563Z,16.73
2023-05-05T01:20:17.788Z,16.68
2023-05-05T01:22:48.319Z,16.65
2023-05-05T01:25:31.822Z,16.61
2023-05-05T01:28:16.507Z,16.56
2023-05-05T01:31:07.110Z,16.50
2023-05-05T01:33:45.165Z,16.46
2023-05-05T01:36:22.532Z,16.30
2023-05-05T01:38:56.703Z,16.44
2023-05-05T01:41:29.351Z,16.45
2023-05-05T01:44:00.812Z,16.42
2023-05-05T01:46:28.823Z,16.37
2023-05-05T01:48:59.617Z,16.35
2023-05-05T01:51:28.724Z,16.31
2023-05-05T01:53:59.125Z,16.28
2023-05-05T01:56:27.416Z,16.27
2023-05-05T01:58:56.666Z,16.21
2023-05-05T02:01:26.898Z,16.23
2023-05-05T02:03:56.855Z,16.22
2023-05-05T02:06:28.128Z,16.20
2023-05-05T02:08:58.513Z,16.14
2023-05-05T02:11:27.786Z,16.12
2023-05-05T02:13:57.293Z,16.12
2023-05-05T02:16:25.827Z,16.09
2023-05-05T02:18:55.475Z,16.09
2023-05-05T02:21:23.294Z,16.09
2023-05-05T02:23:52.549Z,16.02
2023-05-05T02:26:22.496Z,15.98
2023-05-05T02:28:53.840Z,16.00
2023-05-05T02:31:25.023Z,15.97
2023-05-05T02:33:57.075Z,15.96
2023-05-05T02:36:30.672Z,15.92
2023-05-05T02:39:08.597Z,15.92
2023-05-05T02:41:41.097Z,15.90
2023-05-05T02:44:17.750Z,15.91
2023-05-05T02:46:46.147Z,15.93
2023-05-05T02:49:15.881Z,15.90
2023-05-05T02:51:44.376Z,15.91
2023-05-05T02:54:22.434Z,15.81
2023-05-05T02:56:51.985Z,15.73
2023-05-05T02:59:26.677Z,15.77
2023-05-05T03:02:09.578Z,15.81
2023-05-05T03:04:41.372Z,15.86
2023-05-05T03:07:14.234Z,15.86
2023-05-05T03:09:52.677Z,15.84
2023-05-05T03:12:28.489Z,15.85
2023-05-05T03:15:11.653Z,15.80
2023-05-05T03:17:41.525Z,15.87
2023-05-05T03:20:11.699Z,15.93
2023-05-05T03:22:42.544Z,15.95
2023-05-05T03:25:15.432Z,15.97
2023-05-05T03:27:43.479Z,16.00
2023-05-05T03:30:14.625Z,16.01
2023-05-05T03:32:48.705Z,16.01
2023-05-05T03:35:16.900Z,15.99
2023-05-05T03:37:44.965Z,15.96
2023-05-05T03:40:16.759Z,15.92
2023-05-05T03:42:44.581Z,15.87
2023-05-05T03:45:12.727Z,15.80
2023-05-05T03:47:41.110Z,15.75
2023-05-05T03:50:10.206Z,15.76
2023-05-05T03:52:38.478Z,15.73
2023-05-05T03:55:07.042Z,15.68
2023-05-05T03:57:36.164Z,15.71
2023-05-05T04:00:04.279Z,15.69
2023-05-05T04:02:42.113Z,15.63
2023-05-05T04:05:11.420Z,15.57
2023-05-05T04:07:39.276Z,15.51
2023-05-05T04:10:08.835Z,15.45
2023-05-05T04:12:38.237Z,15.44
2023-05-05T04:15:07.482Z,15.43
2023-05-05T04:17:35.387Z,15.45
2023-05-05T04:20:03.547Z,15.44
2023-05-05T04:22:33.068Z,15.42
2023-05-05T04:25:01.195Z,15.41
2023-05-05T04:27:30.387Z,15.43
2023-05-05T04:30:01.722Z,15.44
2023-05-05T04:32:31.583Z,15.47
2023-05-05T04:34:59.984Z,15.51
2023-05-05T04:37:28.185Z,15.51
2023-05-05T04:39:56.682Z,15.53
2023-05-05T04:42:24.869Z,15.52
2023-05-05T04:44:52.815Z,15.54
2023-05-05T04:47:21.974Z,15.57
2023-05-05T04:49:49.753Z,15.59
2023-05-05T04:52:17.699Z,15.61
2023-05-05T04:54:45.480Z,15.62
2023-05-05T04:57:13.289Z,15.63
2023-05-05T04:59:41.293Z,15.64
2023-05-05T05:02:09.137Z,15.67
2023-05-05T05:04:38.320Z,15.73
2023-05-05T05:07:06.047Z,15.72
2023-05-05T05:09:33.773Z,15.74
2023-05-05T05:12:02.906Z,15.81
2023-05-05T05:14:30.784Z,15.68
2023-05-05T05:16:58.519Z,15.90
2023-05-05T05:19:26.339Z,15.95
2023-05-05T05:21:55.477Z,15.98
2023-05-05T05:24:24.296Z,15.98
2023-05-05T05:26:53.863Z,15.97
2023-05-05T05:29:21.710Z,15.94
2023-05-05T05:31:50.488Z,16.00
2023-05-05T05:34:18.261Z,16.01
2023-05-05T05:36:46.673Z,16.02
2023-05-05T05:39:15.897Z,16.04
2023-05-05T05:41:43.807Z,16.11
2023-05-05T05:44:11.856Z,16.09
2023-05-05T05:46:41.462Z,16.06
2023-05-05T05:49:09.285Z,16.16
2023-05-05T05:51:37.276Z,16.20
2023-05-05T05:54:05.214Z,16.24
2023-05-05T05:56:34.845Z,16.28
2023-05-05T05:59:04.552Z,16.30
2023-05-05T06:01:32.433Z,16.31
2023-05-05T06:04:00.369Z,16.32
2023-05-05T06:06:28.637Z,16.31
2023-05-05T06:08:56.384Z,16.36
2023-05-05T06:11:24.837Z,16.37
2023-05-05T06:13:53.968Z,16.38
2023-05-05T06:16:21.764Z,16.38
2023-05-05T06:18:50.002Z,16.38
2023-05-05T06:21:20.533Z,16.31
2023-05-05T06:23:48.430Z,16.46
2023-05-05T06:26:16.994Z,16.52
2023-05-05T06:28:44.731Z,16.55
2023-05-05T06:31:14.273Z,16.61
2023-05-05T06:33:42.060Z,16.68
2023-05-05T06:36:10.184Z,16.74
2023-05-05T06:38:38.092Z,16.80
2023-05-05T06:41:06.574Z,16.86
2023-05-05T06:43:34.376Z,16.92
2023-05-05T06:46:07.410Z,16.95
2023-05-05T06:48:36.503Z,16.97
2023-05-05T06:51:04.495Z,17.02
2023-05-05T06:53:32.220Z,17.01
2023-05-05T06:55:59.933Z,17.05
2023-05-05T06:58:27.791Z,17.11
2023-05-05T07:00:55.619Z,17.19
2023-05-05T07:03:23.435Z,17.25
2023-05-05T07:05:53.787Z,17.33
2023-05-05T07:08:21.676Z,17.39
2023-05-05T07:10:49.796Z,17.41
2023-05-05T07:13:17.843Z,17.46
2023-05-05T07:15:46.623Z,17.49
2023-05-05T07:18:14.677Z,17.52
2023-05-05T07:20:42.470Z,17.54
2023-05-05T07:23:11.728Z,17.56
2023-05-05T07:25:39.883Z,17.52
2023-05-05T07:28:07.673Z,17.62
2023-05-05T07:30:35.320Z,17.65
2023-05-05T07:33:03.068Z,17.69
2023-05-05T07:35:31.058Z,17.66
2023-05-05T07:37:58.791Z,17.70
2023-05-05T07:40:27.837Z,17.73
2023-05-05T07:42:55.488Z,17.78
2023-05-05T07:45:23.181Z,17.77
2023-05-05T07:47:50.921Z,17.79
2023-05-05T07:50:19.015Z,17.83
2023-05-05T07:52:51.809Z,17.85
2023-05-05T07:55:28.432Z,17.89
2023-05-05T07:57:56.420Z,17.97
2023-05-05T08:00:24.225Z,18.00
2023-05-05T08:02:51.972Z,18.01
2023-05-05T08:05:19.789Z,18.11
2023-05-05T08:07:47.652Z,18.09
2023-05-05T08:10:15.439Z,18.11
2023-05-05T08:12:44.611Z,18.21
2023-05-05T08:15:12.812Z,18.21
2023-05-05T08:17:47.995Z,18.17
2023-05-05T08:20:16.222Z,18.27
2023-05-05T08:22:44.148Z,18.33
2023-05-05T08:25:12.957Z,18.33
2023-05-05T08:27:42.617Z,18.31
2023-05-05T08:30:12.825Z,18.38
2023-05-05T08:32:40.620Z,18.44
2023-05-05T08:35:09.085Z,18.39
2023-05-05T08:37:37.235Z,18.37
2023-05-05T08:40:05.710Z,18.39
2023-05-05T08:42:38.619Z,18.47
2023-05-05T08:45:09.478Z,18.48
2023-05-05T08:47:40.035Z,18.37
2023-05-05T08:50:11.288Z,18.44
2023-05-05T08:52:41.281Z,18.45
2023-05-05T08:55:15.551Z,18.43
2023-05-05T08:57:50.013Z,18.43
2023-05-05T09:00:19.596Z,18.50
2023-05-05T09:02:49.407Z,18.53
2023-05-05T09:05:18.927Z,18.59
2023-05-05T09:07:47.430Z,18.69
2023-05-05T09:10:15.581Z,18.77
2023-05-05T09:12:43.636Z,18.88
2023-05-05T09:15:13.395Z,19.00
2023-05-05T09:17:41.903Z,19.09
2023-05-05T09:20:12.673Z,19.12
2023-05-05T09:22:42.704Z,19.05
2023-05-05T09:25:12.541Z,19.02
2023-05-05T09:27:41.934Z,18.98
2023-05-05T09:30:10.980Z,19.01
2023-05-05T09:32:46.913Z,18.96
2023-05-05T09:35:16.883Z,18.91
2023-05-05T09:37:45.264Z,18.80
2023-05-05T09:40:14.811Z,18.76
2023-05-05T09:42:42.651Z,19.00
2023-05-05T09:45:26.503Z,19.16
2023-05-05T09:47:59.193Z,19.12
2023-05-05T09:50:32.515Z,19.29
2023-05-05T09:53:01.939Z,19.31
2023-05-05T09:55:31.380Z,19.30
2023-05-05T09:58:18.040Z,19.38
2023-05-05T10:00:45.978Z,19.48
2023-05-05T10:03:13.785Z,19.45
2023-05-05T10:05:51.921Z,19.43
2023-05-05T10:08:21.471Z,19.60
2023-05-05T10:10:52.574Z,19.75
2023-05-05T10:13:21.674Z,19.84
2023-05-05T10:15:52.057Z,19.88
2023-05-05T10:18:24.232Z,19.99
2023-05-05T10:20:58.452Z,20.22
2023-05-05T10:23:32.967Z,20.33
2023-05-05T10:26:03.604Z,20.50
2023-05-05T10:28:34.356Z,20.52
2023-05-05T10:31:12.840Z,20.48
2023-05-05T10:33:53.507Z,20.39
2023-05-05T10:36:24.389Z,20.36
2023-05-05T10:38:56.350Z,20.28
2023-05-05T10:41:25.510Z,20.22
2023-05-05T10:43:56.264Z,20.27
2023-05-05T10:46:25.117Z,20.12
2023-05-05T10:48:58.487Z,20.06
2023-05-05T10:51:45.750Z,19.97
2023-05-05T10:54:21.906Z,19.89
2023-05-05T10:56:51.142Z,19.85
2023-05-05T10:59:41.329Z,19.78
2023-05-05T11:02:23.472Z,19.74
2023-05-05T11:05:14.231Z,19.67
2023-05-05T11:07:44.110Z,19.59
2023-05-05T11:10:14.138Z,19.54
2023-05-05T11:13:19.978Z,19.44
2023-05-05T11:15:48.731Z,19.37
2023-05-05T11:18:37.092Z,19.29
2023-05-05T11:21:18.270Z,19.20
2023-05-05T11:23:51.950Z,19.17
2023-05-05T11:26:41.064Z,19.01
2023-05-05T11:29:08.825Z,19.08
2023-05-05T11:31:36.588Z,19.01
2023-05-05T11:34:29.978Z,18.91
2023-05-05T11:37:01.129Z,18.83
2023-05-05T11:39:42.935Z,18.65
2023-05-05T11:42:30.293Z,18.53
2023-05-05T11:44:58.235Z,18.37
2023-05-05T11:47:33.142Z,18.28
2023-05-05T11:50:17.558Z,18.00
2023-05-05T11:52:45.516Z,17.80
2023-05-05T11:55:21.278Z,17.67
2023-05-05T11:57:49.442Z,17.54
2023-05-05T12:00:17.912Z,17.38
2023-05-05T12:02:46.021Z,17.24
2023-05-05T12:05:20.603Z,17.13
2023-05-05T12:07:48.434Z,17.11
2023-05-05T12:10:24.899Z,17.23
2023-05-05T12:12:55.181Z,17.32
2023-05-05T12:15:33.189Z,17.48
2023-05-05T12:18:02.608Z,17.66
2023-05-05T12:20:32.678Z,17.76
2023-05-05T12:23:01.900Z,17.99
2023-05-05T12:25:38.148Z,18.12
2023-05-05T12:28:07.148Z,18.28
2023-05-05T12:30:35.624Z,18.37
2023-05-05T12:33:04.447Z,18.40
2023-05-05T12:35:33.222Z,18.37
2023-05-05T12:38:01.047Z,18.18
2023-05-05T12:40:46.714Z,18.18
2023-05-05T12:43:28.765Z,18.20
2023-05-05T12:46:03.900Z,18.34
2023-05-05T12:48:31.864Z,18.34
2023-05-05T12:51:17.149Z,18.40
2023-05-05T12:53:45.793Z,18.27
2023-05-05T12:56:40.619Z,18.25
2023-05-05T12:59:09.767Z,18.32
2023-05-05T13:01:39.033Z,18.37
2023-05-05T13:04:16.000Z,18.45
2023-05-05T13:06:46.124Z,18.59
2023-05-05T13:09:24.394Z,18.46
2023-05-05T13:11:54.474Z,18.62
2023-05-05T13:14:22.474Z,18.71
2023-05-05T13:16:50.254Z,18.64
2023-05-05T13:19:18.235Z,18.65
2023-05-05T13:21:45.953Z,18.80
2023-05-05T13:24:28.111Z,19.18
2023-05-05T13:27:03.966Z,19.40
2023-05-05T13:29:32.195Z,19.71
2023-05-05T13:32:00.276Z,19.65
2023-05-05T13:34:28.188Z,19.55
2023-05-05T13:36:56.182Z,19.58
2023-05-05T13:39:23.884Z,19.43
2023-05-05T13:41:51.787Z,19.46
2023-05-05T13:44:21.008Z,19.36
2023-05-05T13:46:48.892Z,19.23
2023-05-05T13:49:16.707Z,19.24
2023-05-05T13:51:45.190Z,19.34
2023-05-05T13:54:12.989Z,19.15
2023-05-05T13:56:40.881Z,18.97
2023-05-05T13:59:09.137Z,18.94
2023-05-05T14:01:40.573Z,18.91
2023-05-05T14:04:08.748Z,18.83
2023-05-05T14:06:36.792Z,18.73
2023-05-05T14:09:06.245Z,18.67
2023-05-05T14:11:34.730Z,18.55
2023-05-05T14:14:02.749Z,18.60
2023-05-05T14:16:30.525Z,18.62
2023-05-05T14:18:59.719Z,18.63
2023-05-05T14:21:27.511Z,18.64
2023-05-05T14:23:55.298Z,18.60
2023-05-05T14:26:23.095Z,18.53
2023-05-05T14:28:51.209Z,18.45
2023-05-05T14:31:18.976Z,18.37
2023-05-05T14:33:46.757Z,18.36
2023-05-05T14:36:15.802Z,18.18
2023-05-05T14:38:43.811Z,18.10
2023-05-05T14:41:11.767Z,18.05
2023-05-05T14:43:39.612Z,17.93
2023-05-05T14:46:07.667Z,17.95
2023-05-05T14:48:36.003Z,17.97
2023-05-05T14:51:04.669Z,17.99
2023-05-05T14:53:33.780Z,17.98
2023-05-05T14:56:02.176Z,17.74
2023-05-05T14:58:30.060Z,17.70
2023-05-05T15:00:57.727Z,17.55
2023-05-05T15:03:25.750Z,17.45
2023-05-05T15:05:53.656Z,17.33
2023-05-05T15:08:21.968Z,17.32
2023-05-05T15:10:51.090Z,17.29
2023-05-05T15:13:19.298Z,17.10
2023-05-05T15:15:47.231Z,16.79
2023-05-05T15:18:14.961Z,16.66
2023-05-05T15:20:42.681Z,16.64
2023-05-05T15:23:10.590Z,16.61
2023-05-05T15:25:38.466Z,16.61
2023-05-05T15:28:07.620Z,16.57
2023-05-05T15:30:35.477Z,16.62
2023-05-05T15:33:03.238Z,16.63
2023-05-05T15:35:31.277Z,16.56
2023-05-05T15:37:59.011Z,16.61
2023-05-05T15:40:26.717Z,16.63
2023-05-05T15:42:54.525Z,16.58
2023-05-05T15:45:23.645Z,16.67
2023-05-05T15:47:52.742Z,16.58
2023-05-05T15:50:20.888Z,16.75
2023-05-05T15:52:50.080Z,16.75
2023-05-05T15:55:17.907Z,16.80
2023-05-05T15:57:45.598Z,16.74
2023-05-05T16:00:14.700Z,16.77
2023-05-05T16:02:46.174Z,16.81
2023-05-05T16:05:14.395Z,16.86
2023-05-05T16:07:47.489Z,16.83
2023-05-05T16:10:15.275Z,16.83
2023-05-05T16:12:42.953Z,16.88
2023-05-05T16:15:11.881Z,17.00
2023-05-05T16:17:39.939Z,17.02
2023-05-05T16:20:10.283Z,17.06
2023-05-05T16:22:38.024Z,17.17
2023-05-05T16:25:06.859Z,17.15
2023-05-05T16:27:34.758Z,17.17
2023-05-05T16:30:02.575Z,17.01
2023-05-05T16:32:30.328Z,17.17
2023-05-05T16:34:58.068Z,17.25
2023-05-05T16:37:27.183Z,17.32
2023-05-05T16:39:54.941Z,17.38
2023-05-05T16:42:23.192Z,17.37
2023-05-05T16:44:50.963Z,17.39
2023-05-05T16:47:18.769Z,17.28
2023-05-05T16:49:47.636Z,17.22
2023-05-05T16:52:15.434Z,17.16
2023-05-05T16:54:44.554Z,17.10
2023-05-05T16:57:12.763Z,17.12
2023-05-05T16:59:41.621Z,17.21
2023-05-05T17:02:09.551Z,17.21
2023-05-05T17:04:37.288Z,17.17
2023-05-05T17:07:05.063Z,17.13
2023-05-05T17:09:32.884Z,17.05
2023-05-05T17:12:04.083Z,17.04
2023-05-05T17:14:33.502Z,16.95
2023-05-05T17:17:01.282Z,16.93
2023-05-05T17:19:29.514Z,16.95
2023-05-05T17:21:57.268Z,16.94
2023-05-05T17:24:25.052Z,16.99
2023-05-05T17:26:52.948Z,16.99
2023-05-05T17:29:23.131Z,16.97
2023-05-05T17:31:51.601Z,16.91
2023-05-05T17:34:19.352Z,16.91
2023-05-05T17:36:47.045Z,16.88
2023-05-05T17:39:14.781Z,16.82
2023-05-05T17:41:42.823Z,16.79
2023-05-05T17:44:10.540Z,16.75
2023-05-05T17:46:40.346Z,16.71
2023-05-05T17:49:08.090Z,16.69
2023-05-05T17:51:35.821Z,16.66
2023-05-05T17:54:03.539Z,16.62
2023-05-05T17:56:31.306Z,16.61
2023-05-05T17:58:58.992Z,16.66
2023-05-05T18:01:28.564Z,16.69
2023-05-05T18:03:57.670Z,16.72
2023-05-05T18:06:26.837Z,16.72
2023-05-05T18:08:54.576Z,16.71
2023-05-05T18:11:26.705Z,16.68
2023-05-05T18:13:54.481Z,16.64
2023-05-05T18:16:22.336Z,16.52
2023-05-05T18:18:50.170Z,16.61
2023-05-05T18:21:19.250Z,16.67
2023-05-05T18:23:46.947Z,16.71
2023-05-05T18:26:14.698Z,16.73
2023-05-05T18:28:42.554Z,16.70
2023-05-05T18:31:10.313Z,16.70
2023-05-05T18:33:38.143Z,16.70
2023-05-05T18:36:07.098Z,16.70
2023-05-05T18:38:36.198Z,16.74
2023-05-05T18:41:03.938Z,16.73
2023-05-05T18:43:31.838Z,16.72
2023-05-05T18:45:59.675Z,16.69
2023-05-05T18:48:27.481Z,16.70
2023-05-05T18:50:55.482Z,16.65
2023-05-05T18:53:23.234Z,16.65
2023-05-05T18:55:53.049Z,16.67
2023-05-05T18:58:21.251Z,16.67
2023-05-05T19:00:49.100Z,16.60
2023-05-05T19:03:16.835Z,16.59
2023-05-05T19:05:44.808Z,16.62
2023-05-05T19:08:12.506Z,16.63
2023-05-05T19:10:40.297Z,16.64
2023-05-05T19:13:10.846Z,16.70
2023-05-05T19:15:38.775Z,16.67
2023-05-05T19:18:07.004Z,16.67
2023-05-05T19:20:34.843Z,16.66
2023-05-05T19:23:04.334Z,16.67
2023-05-05T19:25:32.136Z,16.68
2023-05-05T19:27:59.935Z,16.68
2023-05-05T19:30:29.050Z,16.65
2023-05-05T19:32:56.939Z,16.68
2023-05-05T19:35:24.644Z,16.68
2023-05-05T19:37:54.846Z,16.45
2023-05-05T19:40:22.967Z,16.61
2023-05-05T19:42:50.692Z,16.55
2023-05-05T19:45:18.885Z,16.52
2023-05-05T19:47:48.123Z,16.45
2023-05-05T19:50:16.389Z,16.41
2023-05-05T19:52:44.111Z,16.42
2023-05-05T19:55:12.962Z,16.36
2023-05-05T19:57:41.018Z,16.33
2023-05-05T20:00:10.951Z,16.30
2023-05-05T20:02:39.073Z,16.30
2023-05-05T20:05:09.237Z,16.33
2023-05-05T20:07:36.973Z,16.22
2023-05-05T20:10:05.309Z,16.14
2023-05-05T20:12:33.128Z,16.07
2023-05-05T20:15:01.306Z,16.10
2023-05-05T20:17:29.063Z,16.01
2023-05-05T20:19:57.632Z,16.01
2023-05-05T20:22:26.878Z,16.10
2023-05-05T20:24:54.581Z,16.21
2023-05-05T20:27:22.316Z,16.12
2023-05-05T20:29:49.950Z,16.13
2023-05-05T20:32:20.501Z,16.13
2023-05-05T20:34:48.406Z,16.13
2023-05-05T20:37:16.221Z,16.05
2023-05-05T20:39:47.236Z,16.11
2023-05-05T20:42:14.972Z,16.15
2023-05-05T20:44:42.740Z,16.11
2023-05-05T20:47:10.809Z,16.14
2023-05-05T20:49:38.728Z,16.03
2023-05-05T20:52:06.600Z,16.04
2023-05-05T20:54:34.692Z,15.98
2023-05-05T20:57:03.696Z,15.97
2023-05-05T20:59:32.143Z,15.98
2023-05-05T21:01:59.896Z,16.01
2023-05-05T21:04:27.663Z,16.02
2023-05-05T21:06:55.376Z,15.95
2023-05-05T21:09:23.107Z,16.02
2023-05-05T21:11:50.954Z,16.25
2023-05-05T21:14:20.027Z,16.15
2023-05-05T21:16:48.220Z,16.16
2023-05-05T21:19:16.287Z,16.19
2023-05-05T21:21:44.226Z,16.25
2023-05-05T21:24:12.862Z,16.20
2023-05-05T21:26:43.008Z,16.25
2023-05-05T21:29:11.004Z,16.24
2023-05-05T21:31:40.221Z,16.28
2023-05-05T21:34:07.997Z,16.25
2023-05-05T21:36:36.716Z,16.22
2023-05-05T21:39:04.801Z,16.26
2023-05-05T21:41:32.527Z,16.23
2023-05-05T21:44:00.347Z,16.29
2023-05-05T21:46:28.304Z,16.32
2023-05-05T21:48:58.175Z,16.36
2023-05-05T21:51:26.539Z,-141.42
2023-05-05T21:53:54.339Z,-141.42
2023-05-05T21:56:22.187Z,-141.42
2023-05-05T21:58:49.925Z,-141.42
2023-05-05T22:01:17.640Z,-141.42
2023-05-05T22:03:47.458Z,-141.42
2023-05-05T22:06:17.875Z,-141.42
2023-05-05T22:08:45.619Z,-141.42
2023-05-05T22:11:13.456Z,-141.42
2023-05-05T22:13:41.243Z,-141.42
2023-05-05T22:16:10.249Z,-141.42
2023-05-05T22:18:38.527Z,-141.42
2023-05-05T22:21:06.678Z,-141.42
2023-05-05T22:23:37.112Z,-141.42
2023-05-05T22:26:05.605Z,-141.42
2023-05-05T22:28:33.342Z,-141.42
2023-05-05T22:31:01.521Z,-141.42
2023-05-05T22:33:29.344Z,-141.42
2023-05-05T22:35:57.311Z,-141.42
2023-05-05T22:38:25.097Z,-141.42
2023-05-05T22:40:54.205Z,-141.42
2023-05-05T22:43:21.970Z,-141.42
2023-05-05T22:45:49.764Z,-141.42
2023-05-05T22:48:17.536Z,-141.42
2023-05-05T22:50:45.606Z,-141.42
2023-05-05T22:53:13.492Z,-141.42
2023-05-05T22:55:41.358Z,-141.42
2023-05-05T22:58:10.472Z,-141.42
2023-05-05T23:00:38.256Z,-141.42
2023-05-05T23:03:06.062Z,-141.42
2023-05-05T23:05:34.393Z,-141.42
2023-05-05T23:08:02.376Z,-141.42
2023-05-05T23:10:30.612Z,-141.42
2023-05-05T23:12:58.459Z,-141.42
2023-05-05T23:15:27.624Z,-141.42
2023-05-05T23:17:55.442Z,-141.42
2023-05-05T23:20:23.364Z,-141.42
2023-05-05T23:22:51.054Z,-141.42
2023-05-05T23:25:18.820Z,-141.42
2023-05-05T23:27:46.633Z,-141.42
2023-05-05T23:30:14.986Z,-141.42
2023-05-05T23:32:44.949Z,-141.42
2023-05-05T23:35:12.866Z,-141.42
2023-05-05T23:37:40.633Z,-141.42
2023-05-05T23:40:09.796Z,-141.42
2023-05-05T23:42:37.526Z,-141.42
2023-05-05T23:45:05.821Z,-141.42
2023-05-05T23:47:33.714Z,-141.42
2023-05-05T23:50:02.931Z,-141.42
2023-05-05T23:52:30.696Z,-141.42
2023-05-05T23:54:58.416Z,-141.42
2023-05-05T23:57:26.784Z,-141.42
2023-05-05T23:59:54.547Z,-141.42
